Terminal Aerodrome Forecast
Issued by NWS

Home | Current Version | Previous Version | Text Only | Print | Product List | Glossary Off
Versions: 1 2 3 4 5 6 7 8 9 10 11 12 13 14 15 16 17 18

000
FTUS43 KGRB 272042 AAA
TAFRHI
TAF AMD
KRHI 272042Z 2721/2818 02004KT P6SM SCT015 OVC080
     FM280400 VRB03KT P6SM SCT012
     FM280800 VRB03KT 2SM BR BKN006
     FM281500 04005KT P6SM SCT020=

USA.gov is the U.S. government's official web portal to all federal, state and local government web resources and services.